This is the latest recevied weather packets stored in our database for station/object K3BAY-1. If no packets are shown the sender has not sent any weather packets the latest 10 day(s).
| Time | Temp. | Humidity | Pressure | Rain* | Wind** | Luminosity | Snow |
|---|---|---|---|---|---|---|---|
| 1777651361 | 16.11° C | 50% | 1014.9 hPa | 0 mm | - | 459 W/m² | - |
| 1777651058 | 16.11° C | 51% | 1014.6 hPa | 0 mm | - | 240 W/m² | - |
| 1777650755 | 16.11° C | 51% | 1014.6 hPa | 0 mm | - | 240 W/m² | - |
| 1777650452 | 15° C | 51% | 1014.2 hPa | 0 mm | - | 61 W/m² | - |
| 1777650149 | 15° C | 51% | 1014.2 hPa | 0 mm | - | 62 W/m² | - |
| 1777649847 | 15° C | 45% | 1014.2 hPa | 0 mm | - | 55 W/m² | - |
| 1777649544 | 15° C | 45% | 1014.2 hPa | 0 mm | - | 55 W/m² | - |
| 1777649240 | 15.56° C | 44% | 1014.2 hPa | 0 mm | - | 55 W/m² | - |
| 1777648937 | 13.89° C | 47% | 1013.9 hPa | 0 mm | - | 50 W/m² | - |
| 1777648634 | 13.89° C | 47% | 1013.9 hPa | 0 mm | - | 50 W/m² | - |
| 1777648330 | 13.89° C | 46% | 1014.2 hPa | 0 mm | - | 49 W/m² | - |
| 1777648027 | 13.89° C | 46% | 1013.9 hPa | 0 mm | - | 47 W/m² | - |
| 1777647723 | 15° C | 49% | 1013.9 hPa | 0 mm | - | 46 W/m² | - |
| 1777647419 | 16.11° C | 50% | 1013.6 hPa | 0 mm | - | 46 W/m² | - |
| 1777647118 | 16.11° C | 50% | 1013.6 hPa | 0 mm | - | 46 W/m² | - |
| 1777646813 | 16.11° C | 47% | 1013.9 hPa | 0 mm | - | 46 W/m² | - |
| 1777646509 | 13.33° C | 56% | 1013.6 hPa | 0 mm | - | 46 W/m² | - |
| 1777646205 | 12.78° C | 54% | 1013.9 hPa | 0 mm | - | 116 W/m² | - |
| 1777645903 | 12.78° C | 53% | 1013.6 hPa | 0 mm | - | 46 W/m² | - |
| 1777645599 | 13.33° C | 52% | 1013.6 hPa | 0 mm | - | 44 W/m² | - |
| 1777645295 | 13.33° C | 52% | 1013.6 hPa | 0 mm | - | 44 W/m² | - |
| 1777644991 | 13.89° C | 51% | 1013.6 hPa | 0 mm | - | 45 W/m² | - |
| 1777644689 | 14.44° C | 50% | 1013.6 hPa | 0 mm | - | 45 W/m² | - |
| 1777644385 | 12.78° C | 53% | 1013.6 hPa | 0 mm | - | 43 W/m² | - |
| 1777644082 | 12.78° C | 53% | 1013.6 hPa | 0 mm | - | 41 W/m² | - |
* Rain latest hour (hover to see other rain measurements)
** Current wind speed in m/s (hover to see current wind gust speed)